createdAt,value
2019-03-23T00:00:37.106Z,151.68
2019-03-23T00:03:07.485Z,153.02
2019-03-23T00:05:37.867Z,149.47
2019-03-23T00:08:08.250Z,151.90
2019-03-23T00:10:38.612Z,153.27
2019-03-23T00:13:09.016Z,155.82
2019-03-23T00:15:39.380Z,151.90
2019-03-23T00:18:09.771Z,150.10
2019-03-23T00:20:40.137Z,142.82
2019-03-23T00:23:11.472Z,165.07
2019-03-23T00:25:41.869Z,162.65
2019-03-23T00:28:12.227Z,145.07
2019-03-23T00:30:42.614Z,183.12
2019-03-23T00:33:14.040Z,175.45
2019-03-23T00:35:44.458Z,184.13
2019-03-23T00:38:14.821Z,159.07
2019-03-23T00:40:45.213Z,174.00
2019-03-23T00:43:16.553Z,156.55
2019-03-23T00:45:46.940Z,151.00
2019-03-23T00:48:17.307Z,179.05
2019-03-23T00:50:47.690Z,189.15
2019-03-23T00:53:18.066Z,187.65
2019-03-23T00:55:48.519Z,224.90
2019-03-23T00:58:18.886Z,227.13
2019-03-23T01:00:49.338Z,433.35
2019-03-23T01:03:19.696Z,235.68
2019-03-23T01:05:50.154Z,319.87
2019-03-23T01:08:20.754Z,297.37
2019-03-23T01:10:52.102Z,151.87
2019-03-23T01:13:22.878Z,174.55
2019-03-23T01:15:53.257Z,205.25
2019-03-23T01:18:23.625Z,237.53
2019-03-23T01:20:54.013Z,240.40
2019-03-23T01:23:33.255Z,184.25
2019-03-23T01:26:03.735Z,162.25
2019-03-23T01:28:34.239Z,311.85
2019-03-23T01:31:04.682Z,324.95
2019-03-23T01:33:35.048Z,279.35
2019-03-23T01:36:05.434Z,138.25
2019-03-23T01:38:35.802Z,239.00
2019-03-23T01:41:07.364Z,366.82
2019-03-23T01:43:38.021Z,169.77
2019-03-23T01:46:08.406Z,305.15
2019-03-23T01:48:38.776Z,207.32
2019-03-23T01:51:09.164Z,299.27
2019-03-23T01:53:39.525Z,219.37
2019-03-23T01:56:09.911Z,157.12
2019-03-23T01:58:40.451Z,201.77
2019-03-23T02:01:11.009Z,172.13
2019-03-23T02:03:41.375Z,116.67
2019-03-23T02:06:11.767Z,144.32
2019-03-23T02:08:42.135Z,181.82
2019-03-23T02:11:12.526Z,153.20
2019-03-23T02:13:43.085Z,200.85
2019-03-23T02:16:13.452Z,211.52
2019-03-23T02:18:43.817Z,208.45
2019-03-23T02:21:14.208Z,158.78
2019-03-23T02:23:44.936Z,183.75
2019-03-23T02:26:15.330Z,329.70
2019-03-23T02:28:45.697Z,230.50
2019-03-23T02:31:16.081Z,119.85
2019-03-23T02:33:46.821Z,261.60
2019-03-23T02:36:17.211Z,167.32
2019-03-23T02:38:47.581Z,204.70
2019-03-23T02:41:17.975Z,186.75
2019-03-23T02:43:48.343Z,200.05
2019-03-23T02:46:18.732Z,181.70
2019-03-23T02:48:49.094Z,254.53
2019-03-23T02:51:19.473Z,153.12
2019-03-23T02:53:49.834Z,174.30
2019-03-23T02:56:20.216Z,268.07
2019-03-23T02:58:50.589Z,115.05
2019-03-23T03:01:20.989Z,163.87
2019-03-23T03:03:51.489Z,262.98
2019-03-23T03:06:21.878Z,184.80
2019-03-23T03:08:52.249Z,167.15
2019-03-23T03:11:22.633Z,184.87
2019-03-23T03:13:53.001Z,266.20
2019-03-23T03:16:23.384Z,252.03
2019-03-23T03:18:53.755Z,197.98
2019-03-23T03:21:24.139Z,201.10
2019-03-23T03:23:54.496Z,235.72
2019-03-23T03:26:26.451Z,204.35
2019-03-23T03:28:56.804Z,212.17
2019-03-23T03:31:27.295Z,169.32
2019-03-23T03:33:57.658Z,173.53
2019-03-23T03:36:30.052Z,147.50
2019-03-23T03:39:00.212Z,164.57
2019-03-23T03:41:30.596Z,128.62
2019-03-23T03:44:00.954Z,131.22
2019-03-23T03:46:31.347Z,111.15
2019-03-23T03:49:12.448Z,131.45
2019-03-23T03:51:33.787Z,120.13
2019-03-23T03:54:04.316Z,102.30
2019-03-23T03:56:54.030Z,109.27
2019-03-23T03:59:24.395Z,123.53
2019-03-23T04:01:54.815Z,110.92
2019-03-23T04:04:25.174Z,166.62
2019-03-23T04:06:55.567Z,134.22
2019-03-23T04:09:25.949Z,239.53
2019-03-23T04:11:56.316Z,118.15
2019-03-23T04:14:26.764Z,105.97
2019-03-23T04:16:57.140Z,106.32
2019-03-23T04:19:27.528Z,135.63
2019-03-23T04:21:57.889Z,184.78
2019-03-23T04:24:28.282Z,107.30
2019-03-23T04:26:58.644Z,145.43
2019-03-23T04:29:29.037Z,143.87
2019-03-23T04:31:59.385Z,167.07
2019-03-23T04:34:29.771Z,125.97
2019-03-23T04:37:00.139Z,159.35
2019-03-23T04:39:30.530Z,138.12
2019-03-23T04:42:00.895Z,153.80
2019-03-23T04:44:31.282Z,106.00
2019-03-23T04:47:01.653Z,143.25
2019-03-23T04:49:32.043Z,135.65
2019-03-23T04:52:02.404Z,128.18
2019-03-23T04:54:45.473Z,105.05
2019-03-23T04:57:15.836Z,112.70
2019-03-23T04:59:46.229Z,115.08
2019-03-23T05:02:16.593Z,101.72
2019-03-23T05:04:46.984Z,106.70
2019-03-23T05:07:17.345Z,106.95
2019-03-23T05:09:47.744Z,108.37
2019-03-23T05:12:18.103Z,105.37
2019-03-23T05:14:48.489Z,102.20
2019-03-23T05:17:18.851Z,94.45
2019-03-23T05:19:49.238Z,83.25
2019-03-23T05:22:19.603Z,118.17
2019-03-23T05:24:49.987Z,89.00
2019-03-23T05:27:20.389Z,97.50
2019-03-23T05:29:50.788Z,101.60
2019-03-23T05:32:21.147Z,100.12
2019-03-23T05:34:51.534Z,104.75
2019-03-23T05:37:21.891Z,121.47
2019-03-23T05:39:52.314Z,101.02
2019-03-23T05:42:22.675Z,94.00
2019-03-23T05:44:53.061Z,80.38
2019-03-23T05:47:23.425Z,95.28
2019-03-23T05:49:53.811Z,79.05
2019-03-23T05:52:24.168Z,88.27
2019-03-23T05:54:54.555Z,72.27
2019-03-23T05:57:24.917Z,78.47
2019-03-23T05:59:55.303Z,78.20
2019-03-23T06:02:25.669Z,70.00
2019-03-23T06:04:56.048Z,63.33
2019-03-23T06:07:26.406Z,63.70
2019-03-23T06:09:57.025Z,62.62
2019-03-23T06:12:27.375Z,59.27
2019-03-23T06:14:57.755Z,56.55
2019-03-23T06:17:28.240Z,53.98
2019-03-23T06:19:58.645Z,50.50
2019-03-23T06:22:29.003Z,49.85
2019-03-23T06:24:59.953Z,49.45
2019-03-23T06:27:31.004Z,49.35
2019-03-23T06:30:01.388Z,50.55
2019-03-23T06:32:31.753Z,44.85
2019-03-23T06:35:02.138Z,42.40
2019-03-23T06:37:32.503Z,42.75
2019-03-23T06:40:03.264Z,43.15
2019-03-23T06:42:33.618Z,44.20
2019-03-23T06:45:06.423Z,43.35
2019-03-23T06:47:36.793Z,43.63
2019-03-23T06:50:11.636Z,45.40
2019-03-23T06:52:42.263Z,47.48
2019-03-23T06:55:12.816Z,49.53
2019-03-23T06:57:43.184Z,49.45
2019-03-23T07:00:16.557Z,47.53
2019-03-23T07:02:46.927Z,51.58
2019-03-23T07:05:17.308Z,56.63
2019-03-23T07:07:47.661Z,55.70
2019-03-23T07:10:18.043Z,58.23
2019-03-23T07:12:48.411Z,60.95
2019-03-23T07:15:20.357Z,56.37
2019-03-23T07:17:50.944Z,58.33
2019-03-23T07:20:21.338Z,56.40
2019-03-23T07:22:52.071Z,54.80
2019-03-23T07:25:22.460Z,54.90
2019-03-23T07:27:52.824Z,54.85
2019-03-23T07:30:23.220Z,53.85
2019-03-23T07:32:54.097Z,48.02
2019-03-23T07:35:24.444Z,49.10
2019-03-23T07:37:54.813Z,47.00
2019-03-23T07:40:25.216Z,46.20
2019-03-23T07:42:55.587Z,45.20
2019-03-23T07:45:25.996Z,46.63
2019-03-23T07:47:56.371Z,47.98
2019-03-23T07:50:27.836Z,41.28
2019-03-23T07:52:58.210Z,44.03
2019-03-23T07:55:28.610Z,41.48
2019-03-23T07:57:58.732Z,40.17
2019-03-23T08:00:34.688Z,35.48
2019-03-23T08:03:29.924Z,34.58
2019-03-23T08:08:49.607Z,37.53
2019-03-23T08:11:35.913Z,34.75
2019-03-23T08:14:11.827Z,31.12
2019-03-23T09:01:46.529Z,34.13
2019-03-23T09:04:16.936Z,34.90
2019-03-23T09:06:47.327Z,33.83
2019-03-23T09:09:17.698Z,33.92
2019-03-23T09:11:48.098Z,31.80
2019-03-23T09:14:18.473Z,34.08
2019-03-23T09:16:48.869Z,33.42
2019-03-23T09:19:19.271Z,31.73
2019-03-23T09:21:49.628Z,33.78
2019-03-23T09:24:20.013Z,31.33
2019-03-23T09:26:50.380Z,30.82
2019-03-23T09:29:20.775Z,30.40
2019-03-23T09:31:51.147Z,33.20
2019-03-23T09:34:21.540Z,32.10
2019-03-23T09:36:51.919Z,34.25
2019-03-23T09:39:25.311Z,29.65
2019-03-23T09:41:55.682Z,29.87
2019-03-23T09:44:26.081Z,30.57
2019-03-23T09:46:56.446Z,31.27
2019-03-23T09:49:27.728Z,34.98
2019-03-23T09:51:58.092Z,31.02
2019-03-23T09:54:28.480Z,34.18
2019-03-23T09:56:59.677Z,29.10
2019-03-23T09:59:30.123Z,31.02
2019-03-23T10:02:00.490Z,29.75
2019-03-23T10:04:30.877Z,28.65
2019-03-23T10:07:01.239Z,29.42
2019-03-23T10:09:31.640Z,33.18
2019-03-23T10:12:02.011Z,32.50
2019-03-23T10:14:32.411Z,34.13
2019-03-23T10:17:02.777Z,35.95
2019-03-23T10:19:33.170Z,36.80
2019-03-23T10:22:03.535Z,29.40
2019-03-23T10:24:33.930Z,30.88
2019-03-23T10:27:04.473Z,35.65
2019-03-23T10:29:34.883Z,30.52
2019-03-23T10:32:05.252Z,33.23
2019-03-23T10:34:35.644Z,31.35
2019-03-23T10:37:06.013Z,33.38
2019-03-23T10:39:36.468Z,32.08
2019-03-23T10:42:06.838Z,35.20
2019-03-23T10:44:37.224Z,31.80
2019-03-23T10:47:07.598Z,35.38
2019-03-23T10:49:37.992Z,32.85
2019-03-23T10:52:08.357Z,34.40
2019-03-23T10:54:51.306Z,34.43
2019-03-23T10:57:21.669Z,37.95
2019-03-23T10:59:52.076Z,35.08
2019-03-23T11:02:22.454Z,33.83
2019-03-23T11:04:52.846Z,40.58
2019-03-23T11:07:23.213Z,39.08
2019-03-23T11:09:53.678Z,38.17
2019-03-23T11:12:24.070Z,38.67
2019-03-23T11:14:54.513Z,41.53
2019-03-23T11:17:24.923Z,42.15
2019-03-23T11:19:58.436Z,41.05
2019-03-23T11:22:28.571Z,44.53
2019-03-23T11:24:59.016Z,44.63
2019-03-23T11:27:29.448Z,46.83
2019-03-23T11:29:59.876Z,45.30
2019-03-23T11:32:30.329Z,44.63
2019-03-23T11:35:00.859Z,46.35
2019-03-23T11:37:31.493Z,46.92
2019-03-23T11:40:02.166Z,53.60
2019-03-23T11:42:32.616Z,52.90
2019-03-23T11:45:03.451Z,47.53
2019-03-23T11:47:33.958Z,51.90
2019-03-23T11:50:06.469Z,47.25
2019-03-23T11:52:36.849Z,47.93
2019-03-23T11:55:08.666Z,47.05
2019-03-23T11:57:39.060Z,45.83
2019-03-23T12:00:17.531Z,48.73
2019-03-23T12:02:47.886Z,50.25
2019-03-23T12:05:18.352Z,49.58
2019-03-23T12:07:48.841Z,46.85
2019-03-23T12:10:22.089Z,50.20
2019-03-23T12:12:52.529Z,52.45
2019-03-23T12:15:23.192Z,54.55
2019-03-23T12:17:53.703Z,50.23
2019-03-23T12:20:25.226Z,55.10
2019-03-23T12:22:55.704Z,55.73
2019-03-23T12:25:26.456Z,58.70
2019-03-23T12:27:56.814Z,60.35
2019-03-23T12:30:27.668Z,56.83
2019-03-23T12:32:58.027Z,57.08
2019-03-23T12:35:28.422Z,55.90
2019-03-23T12:37:59.595Z,57.58
2019-03-23T12:40:29.994Z,50.33
2019-03-23T12:43:00.361Z,52.15
2019-03-23T12:45:30.750Z,51.33
2019-03-23T12:48:01.134Z,48.48
2019-03-23T12:50:32.610Z,50.00
2019-03-23T12:53:02.985Z,46.25
2019-03-23T12:55:33.946Z,43.35
2019-03-23T12:58:04.317Z,43.87
2019-03-23T13:00:35.964Z,47.27
2019-03-23T13:03:06.397Z,45.90
2019-03-23T13:05:36.793Z,47.43
2019-03-23T13:08:08.300Z,47.73
2019-03-23T13:10:38.692Z,46.20
2019-03-23T13:13:09.069Z,48.60
2019-03-23T14:09:00.756Z,38.73
2019-03-23T14:11:31.299Z,40.70
2019-03-23T14:14:01.691Z,40.58
2019-03-23T14:16:32.073Z,39.98
2019-03-23T14:19:02.466Z,41.33
2019-03-23T14:21:32.853Z,39.33
2019-03-23T14:24:03.220Z,42.60
2019-03-23T14:26:33.583Z,43.60
2019-03-23T14:29:03.979Z,43.30
2019-03-23T14:31:34.426Z,44.77
2019-03-23T14:34:04.821Z,47.20
2019-03-23T14:36:35.195Z,46.98
2019-03-23T14:39:07.537Z,47.88
2019-03-23T14:41:37.914Z,50.08
2019-03-23T14:44:08.305Z,50.03
2019-03-23T14:46:38.677Z,50.75
2019-03-23T14:49:21.486Z,48.02
2019-03-23T14:51:51.863Z,55.90
2019-03-23T14:54:22.258Z,54.60
2019-03-23T14:56:52.619Z,53.10
2019-03-23T14:59:23.019Z,57.17
2019-03-23T15:01:53.450Z,54.00
2019-03-23T15:04:23.910Z,56.88
2019-03-23T15:06:54.280Z,59.63
2019-03-23T15:09:28.941Z,58.58
2019-03-23T15:11:59.379Z,55.28
2019-03-23T15:14:29.765Z,56.37
2019-03-23T15:17:00.275Z,53.90
2019-03-23T15:19:30.679Z,56.25
2019-03-23T15:22:04.010Z,54.42
2019-03-23T15:24:37.318Z,56.70
2019-03-23T15:27:07.886Z,55.52
2019-03-23T15:29:39.236Z,53.10
2019-03-23T15:32:09.693Z,56.15
2019-03-23T15:34:40.072Z,59.98
2019-03-23T15:37:10.469Z,49.58
2019-03-23T15:39:41.429Z,53.58
2019-03-23T15:42:11.880Z,50.98
2019-03-23T15:44:42.259Z,52.70
2019-03-23T15:47:12.695Z,53.25
2019-03-23T15:49:43.062Z,50.38
2019-03-23T15:52:17.224Z,47.48
2019-03-23T15:54:47.790Z,48.23
2019-03-23T15:57:18.535Z,51.33
2019-03-23T15:59:49.006Z,49.33
2019-03-23T16:02:20.348Z,44.60
2019-03-23T16:04:50.743Z,51.00
2019-03-23T16:07:29.535Z,46.92
2019-03-23T16:09:56.313Z,45.35
2019-03-23T16:12:34.801Z,47.80
2019-03-23T16:14:59.752Z,44.42
2019-03-23T16:17:30.191Z,44.25
2019-03-23T16:20:00.646Z,44.93
2019-03-23T16:22:31.126Z,45.88
2019-03-23T16:25:01.611Z,48.48
2019-03-23T16:27:32.019Z,45.92
2019-03-23T16:30:02.418Z,44.98
2019-03-23T16:32:32.785Z,45.08
2019-03-23T16:35:03.806Z,42.00
2019-03-23T16:37:34.185Z,42.65
2019-03-23T16:40:08.817Z,40.83
2019-03-23T16:42:45.297Z,41.15
2019-03-23T16:45:11.895Z,43.20
2019-03-23T16:47:42.427Z,41.35
2019-03-23T16:50:14.158Z,41.15
2019-03-23T16:52:44.605Z,42.30
2019-03-23T16:55:14.985Z,40.52
2019-03-23T16:57:45.524Z,42.73
2019-03-23T17:00:18.250Z,42.78
2019-03-23T17:02:48.688Z,43.05
2019-03-23T17:05:19.064Z,42.43
2019-03-23T17:07:50.010Z,40.15
2019-03-23T17:10:20.406Z,38.28
2019-03-23T17:12:55.330Z,41.90
2019-03-23T17:15:22.874Z,38.30
2019-03-23T17:17:53.352Z,40.48
2019-03-23T17:20:36.186Z,38.13
2019-03-23T17:23:06.560Z,38.15
2019-03-23T17:25:37.793Z,38.92
2019-03-23T17:28:08.300Z,37.13
2019-03-23T17:30:38.697Z,32.95
2019-03-23T17:33:09.087Z,35.13
2019-03-23T17:38:07.305Z,36.35
2019-03-23T17:40:37.694Z,34.80
2019-03-23T17:43:08.067Z,32.05
2019-03-23T17:45:38.463Z,32.75
2019-03-23T17:48:08.945Z,38.73
2019-03-23T17:50:39.326Z,33.33
2019-03-23T17:53:09.764Z,35.05
2019-03-23T17:55:40.156Z,35.70
2019-03-23T17:58:10.633Z,32.60
2019-03-23T18:00:41.008Z,34.73
2019-03-23T18:03:11.485Z,33.55
2019-03-23T18:05:41.876Z,32.83
2019-03-23T18:08:12.253Z,33.53
2019-03-23T18:10:42.662Z,33.18
2019-03-23T18:13:16.725Z,35.92
2019-03-23T18:15:45.151Z,30.65
2019-03-23T18:18:15.718Z,36.63
2019-03-23T18:20:46.083Z,35.83
2019-03-23T18:23:16.482Z,34.95
2019-03-23T18:25:46.849Z,36.42
2019-03-23T18:28:17.421Z,41.68
2019-03-23T18:30:48.138Z,36.55
2019-03-23T18:33:18.537Z,33.92
2019-03-23T18:35:49.060Z,38.35
2019-03-23T18:38:19.464Z,41.10
2019-03-23T18:40:49.836Z,36.90
2019-03-23T18:43:27.442Z,39.95
2019-03-23T18:45:52.299Z,42.30
2019-03-23T18:48:22.694Z,40.12
2019-03-23T18:50:53.076Z,39.95
2019-03-23T18:53:24.145Z,43.55
2019-03-23T18:55:54.577Z,39.40
2019-03-23T18:58:36.979Z,42.95
2019-03-23T19:09:54.833Z,53.08
2019-03-23T19:15:43.293Z,57.65
2019-03-23T19:40:49.612Z,67.82
2019-03-23T19:58:50.683Z,70.72
2019-03-23T20:01:21.067Z,72.80
2019-03-23T20:03:51.467Z,76.02
2019-03-23T20:06:21.938Z,78.10
2019-03-23T20:08:52.458Z,77.67
2019-03-23T20:11:22.964Z,78.10
2019-03-23T20:13:58.681Z,76.60
2019-03-23T20:16:25.377Z,75.75
2019-03-23T20:18:55.771Z,78.60
2019-03-23T20:21:26.140Z,74.60
2019-03-23T20:23:56.534Z,75.78
2019-03-23T20:26:27.883Z,82.15
2019-03-23T20:28:58.320Z,77.80
2019-03-23T20:31:28.684Z,78.62
2019-03-23T20:33:59.120Z,82.75
2019-03-23T20:36:30.562Z,82.20
2019-03-23T20:39:00.993Z,85.07
2019-03-23T20:41:31.911Z,85.53
2019-03-23T20:44:09.347Z,84.10
2019-03-23T20:46:40.467Z,80.20
2019-03-23T20:49:25.516Z,82.67
2019-03-23T20:51:57.614Z,85.55
2019-03-23T20:54:29.222Z,82.40
2019-03-23T20:56:59.670Z,86.85
2019-03-23T20:59:31.788Z,89.75
2019-03-23T21:02:09.049Z,82.40
2019-03-23T21:07:32.789Z,87.92
2019-03-23T21:10:03.356Z,81.97
2019-03-23T21:12:33.700Z,87.37
2019-03-23T21:15:05.939Z,84.87
2019-03-23T21:17:36.297Z,87.00
2019-03-23T21:20:08.697Z,81.28
2019-03-23T21:22:39.107Z,82.25
2019-03-23T21:25:12.733Z,83.42
2019-03-23T21:27:43.091Z,80.92
2019-03-23T21:30:16.748Z,86.17
2019-03-23T21:32:47.149Z,84.87
2019-03-23T21:35:17.489Z,84.13
2019-03-23T21:37:51.746Z,84.25
2019-03-23T21:40:22.131Z,81.67
2019-03-23T21:42:52.493Z,83.27
2019-03-23T21:45:22.876Z,80.47
2019-03-23T21:47:53.237Z,83.65
2019-03-23T21:50:23.620Z,84.85
2019-03-23T21:52:54.060Z,79.50
2019-03-23T21:55:24.545Z,83.55
2019-03-23T21:57:55.456Z,77.60
2019-03-23T22:00:34.672Z,76.20
2019-03-23T22:03:05.431Z,76.53
2019-03-23T22:05:36.360Z,78.17
2019-03-23T22:08:07.356Z,75.37
2019-03-23T22:10:38.225Z,78.45
2019-03-23T22:13:09.134Z,80.28
2019-03-23T22:15:41.545Z,82.92
2019-03-23T22:18:12.406Z,74.03
2019-03-23T22:20:43.183Z,81.37
2019-03-23T22:23:14.157Z,69.95
2019-03-23T22:25:45.212Z,78.37
2019-03-23T22:28:17.183Z,82.78
2019-03-23T22:30:48.110Z,79.80
2019-03-23T22:33:18.651Z,85.77
2019-03-23T22:35:52.344Z,79.15
2019-03-23T22:38:23.177Z,83.42
2019-03-23T22:40:56.542Z,85.07
2019-03-23T22:43:26.891Z,90.22
2019-03-23T22:46:00.665Z,86.63
2019-03-23T22:48:34.811Z,86.72
2019-03-23T22:51:05.547Z,90.38
2019-03-23T22:53:39.447Z,92.30
2019-03-23T22:56:13.000Z,95.75
2019-03-23T22:58:47.061Z,93.90
2019-03-23T23:01:18.311Z,92.10
2019-03-23T23:03:49.248Z,96.02
2019-03-23T23:06:39.201Z,98.17
2019-03-23T23:09:11.082Z,93.27
2019-03-23T23:11:42.045Z,99.35
2019-03-23T23:14:14.413Z,102.92
2019-03-23T23:16:45.565Z,98.95
2019-03-23T23:19:16.583Z,104.85
2019-03-23T23:21:47.543Z,96.15
2019-03-23T23:24:18.468Z,107.22
2019-03-23T23:26:50.621Z,98.17
2019-03-23T23:29:21.585Z,107.40
2019-03-23T23:31:52.002Z,105.87
2019-03-23T23:34:22.439Z,109.65
2019-03-23T23:36:52.827Z,107.27
2019-03-23T23:39:23.186Z,105.65
2019-03-23T23:41:53.647Z,110.17
2019-03-23T23:44:24.161Z,106.83
2019-03-23T23:46:54.865Z,107.00
2019-03-23T23:49:25.371Z,100.53
2019-03-23T23:51:55.857Z,108.75
2019-03-23T23:54:26.307Z,112.52
2019-03-23T23:56:56.815Z,112.28
2019-03-23T23:59:27.835Z,113.83
